Weather reports worldwide

Advertisment
Kahler Asten, Germany (10427): temperature & dewpoint: 20.03.2019 08:00:00 - 26.03.2019 08:00:00 (CET)Kahler Asten, Germany (10427): temperature 5cm & temperature -5cm: 20.03.2019 08:00:00 - 26.03.2019 08:00:00 (CET)Kahler Asten, Germany (10427): temperature -20cm & temperature -100cm: 20.03.2019 08:00:00 - 26.03.2019 08:00:00 (CET)Kahler Asten, Germany (10427): wind speed & gusts: 20.03.2019 08:00:00 - 26.03.2019 08:00:00 (CET)Kahler Asten, Germany (10427): wind direction: 20.03.2019 08:00:00 - 26.03.2019 08:00:00 (CET)Kahler Asten, Germany (10427): visibility: 20.03.2019 08:00:00 - 26.03.2019 08:00:00 (CET)Kahler Asten, Germany (10427): sunshine duration: 20.03.2019 08:00:00 - 26.03.2019 08:00:00 (CET)Kahler Asten, Germany (10427): precipitation: 20.03.2019 08:00:00 - 26.03.2019 08:00:00 (CET)
Date & Time tt [°C] td [°C] tt 5cm [°C] tt -5cm [°C] tt -20cm [°C] tt -100cm [°C] ff [km/h] ff [kn] fx [km/h] fx [kn] dd vv [km] sd [min] rr [mm]
26.03.2019 08:00:00 - - - - - - - - - - - - - -
26.03.2019 07:00:00 -1,6 -2,4 -1,6 0,5 1,8 3,7 32 17 49 26 NW 10 0 0,0
26.03.2019 06:00:00 -1,5 -2,4 -1,6 0,4 1,8 3,7 35 19 52 28 NW 21 0 0,0
26.03.2019 05:00:00 -1,0 -1,8 -1,1 0,4 1,8 3,7 31 17 45 25 NW 15 0 0,0
26.03.2019 04:00:00 -0,5 -1,0 -0,5 0,5 1,9 3,7 33 18 48 26 NNW 0,3 0 0,0
26.03.2019 03:00:00 -0,4 -1,0 -0,3 0,5 1,9 3,7 32 17 47 25 NNW 0,1 0 0,0
26.03.2019 02:00:00 -0,4 -1,0 -0,3 0,5 1,9 3,7 28 15 41 22 NNW 0,1 0 0,0
26.03.2019 01:00:00 -0,3 -0,8 -0,3 0,5 2,0 3,7 24 13 41 22 NNW 0,1 0 0,0
26.03.2019 00:00:00 -0,3 -0,9 -0,4 0,5 2,0 3,7 29 16 41 22 NNW 0,1 0 0,0
25.03.2019 23:00:00 -0,3 -0,8 -0,4 0,5 2,0 3,7 25 13 46 25 N 0,1 0 0,0
25.03.2019 22:00:00 -0,4 -1,0 -0,5 0,5 2,1 3,7 32 18 48 26 N 0,4 0 0,0
25.03.2019 21:00:00 -0,3 -0,8 -0,4 0,5 2,1 3,7 26 14 50 27 NNW 0,2 0 0,0
25.03.2019 20:00:00 -0,5 -1,1 -0,6 0,5 2,1 3,7 29 16 54 29 NNW 0,2 0 1,1
25.03.2019 19:00:00 -0,4 -1,0 -0,5 0,5 2,2 3,7 32 17 61 33 N 0,4 0 0,5
25.03.2019 18:00:00 -0,4 -1,1 -0,3 0,5 2,2 3,7 45 24 57 31 NW 2,2 0 0,3
25.03.2019 17:00:00 -0,6 -1,2 0,0 0,5 2,3 3,7 29 16 55 30 NNW 0,9 0 0,9
25.03.2019 16:00:00 -0,3 -1,1 -0,5 0,4 2,3 3,7 38 21 56 31 NW 10 18 1,1
25.03.2019 15:00:00 0,3 -2,0 1,9 0,4 2,4 3,7 36 19 74 40 NW 12 18 1,1
25.03.2019 14:00:00 -0,2 -1,7 0,1 0,4 2,4 3,7 34 19 65 35 NNW 21 8 0,2
25.03.2019 13:00:00 -0,6 -1,5 0,1 0,4 2,5 3,7 39 21 64 35 NW 6 0 1,6
25.03.2019 12:00:00 -0,1 -1,8 0,4 0,4 2,5 3,7 30 16 72 39 NW 13 1 1,3
25.03.2019 11:00:00 -0,6 -1,8 -0,7 0,4 2,6 3,7 39 21 72 39 W 6 0 0,6
25.03.2019 10:00:00 -0,7 -2,1 -0,8 0,3 2,7 3,7 34 18 59 32 WNW 17 0 0,1
25.03.2019 09:00:00 -0,8 -2,3 -0,8 0,3 2,8 3,6 36 19 58 31 NW 19 0 0,1
25.03.2019 08:00:00 -1,1 -2,2 -1,1 0,3 2,9 3,6 37 20 66 35 NW 23 0 0,0
25.03.2019 07:00:00 -1,3 -2,2 -1,4 0,3 3,0 3,6 39 21 64 35 NW 7 0 1,9
25.03.2019 06:00:00 -0,9 -1,4 -0,9 0,3 3,2 3,6 31 17 53 29 W 0,1 0 0,1
25.03.2019 05:00:00 -1,1 -1,9 -1,1 0,3 3,3 3,6 33 18 51 27 W 2,5 0 0,3
25.03.2019 04:00:00 -1,0 -2,6 -1,4 0,3 3,5 3,6 34 18 48 26 W 12 0 0,0
25.03.2019 03:00:00 -1,1 -3,3 -1,3 0,3 3,7 3,6 27 15 48 26 W 21 0 0,0
25.03.2019 02:00:00 -1,1 -3,8 -1,4 0,4 4,0 3,6 24 13 44 24 W 25 0 0,0
25.03.2019 01:00:00 -0,7 -3,8 -1,8 0,6 4,3 3,6 30 16 48 26 WNW 32 0 0,0
25.03.2019 00:00:00 -0,3 -3,1 -1,2 0,8 4,6 3,6 30 16 42 23 WNW 40 0 0,0
24.03.2019 23:00:00 0,4 -3,3 -0,8 1,0 5,0 3,5 25 14 41 22 WNW 45 0 0,0
24.03.2019 22:00:00 0,6 -4,0 -0,7 1,2 5,4 3,5 29 16 39 21 NW 52 0 0,0
24.03.2019 21:00:00 1,1 -4,5 -0,2 1,3 5,9 3,5 24 13 32 17 WNW 51 0 0,0
24.03.2019 20:00:00 1,1 -5,2 -0,6 2,4 6,3 3,5 21 12 35 19 NW 70 0 0,0
24.03.2019 19:00:00 2,3 -4,0 0,7 4,2 6,5 3,5 24 13 32 17 NW 57 22 0,0
24.03.2019 18:00:00 4,1 -1,8 3,7 6,7 6,6 3,5 22 12 30 16 NW 42 59 0,0
24.03.2019 17:00:00 4,6 -1,0 5,1 8,4 6,5 3,5 24 13 34 18 NW 29 35 0,0
24.03.2019 16:00:00 5,2 -0,1 6,4 8,8 6,3 3,5 22 12 33 18 NW 31 37 0,0
24.03.2019 15:00:00 6,1 0,2 8,4 9,0 6,0 3,4 24 13 33 18 NW 37 22 0,0
24.03.2019 14:00:00 5,5 1,2 6,4 10,1 5,8 3,4 13 7 26 14 NW 24 18 0,0
24.03.2019 13:00:00 4,0 2,1 4,3 7,6 5,6 3,4 16 9 32 18 N 11 0 0,0
24.03.2019 12:00:00 4,7 1,0 5,9 8,0 5,4 3,4 9 5 15 8 NNW 24 0 0,0
24.03.2019 11:00:00 3,8 2,7 4,9 7,1 5,2 3,4 5 3 12 6 ESE 12 0 0,0
24.03.2019 10:00:00 3,1 2,4 4,2 5,7 5,2 3,4 8 4 16 8 ENE 8 0 0,0
24.03.2019 09:00:00 2,9 2,4 3,3 4,6 5,3 3,4 9 5 16 9 ENE 0,2 0 0,0
24.03.2019 08:00:00 2,9 2,4 3,2 4,4 5,4 3,3 9 5 19 10 E 0,1 0 0,0
24.03.2019 07:00:00 2,9 2,5 3,0 4,3 5,5 3,3 10 6 16 9 ENE 0,1 0 0,0
24.03.2019 06:00:00 2,9 2,5 2,9 4,4 5,6 3,3 10 6 18 10 ENE 0,1 0 0,0
24.03.2019 05:00:00 3,1 2,6 3,1 4,6 5,7 3,3 13 7 21 11 ENE 0,1 0 0,0
24.03.2019 04:00:00 3,8 3,3 3,7 4,8 5,9 3,3 7 4 16 9 ENE 0,1 0 0,0
24.03.2019 03:00:00 3,9 3,4 3,8 4,9 6,0 3,3 11 6 21 11 ENE 0,1 0 0,0
24.03.2019 02:00:00 4,0 3,5 3,7 4,8 6,2 3,3 16 9 23 12 NE 0,5 0 0,0
24.03.2019 01:00:00 4,2 3,6 4,0 5,2 6,4 3,2 14 7 24 13 ENE 1,0 0 0,0
24.03.2019 00:00:00 4,3 3,5 4,2 5,3 6,6 3,2 10 6 20 11 ENE 2,3 0 0,0
23.03.2019 23:00:00 4,3 3,2 4,2 5,3 6,8 3,2 14 8 27 15 NE 4,0 0 0,0
23.03.2019 22:00:00 4,5 2,7 4,3 5,5 7,1 3,2 20 11 34 19 NE 11 0 0,0
23.03.2019 21:00:00 4,4 3,2 4,3 5,7 7,4 3,2 20 11 29 15 NNE 4,0 0 0,0
23.03.2019 20:00:00 4,2 2,9 3,8 5,8 7,7 3,2 20 11 33 18 NNE 4,2 0 0,0
23.03.2019 19:00:00 4,3 2,3 3,5 6,4 8,1 3,1 21 11 31 17 N 7 9 0,0
23.03.2019 18:00:00 5,0 1,9 4,8 7,9 8,3 3,1 24 13 43 23 N 11 40 0,0
23.03.2019 17:00:00 5,3 2,1 6,0 10,0 8,4 3,1 29 16 43 23 N 9 59 0,0
23.03.2019 16:00:00 5,0 2,1 7,7 11,6 8,3 3,1 30 16 40 22 N 6 33 0,0
23.03.2019 15:00:00 3,5 1,8 5,9 13,1 7,9 3,1 26 14 32 17 NW 2,4 25 0,0
23.03.2019 14:00:00 5,4 2,4 10,3 15,5 7,3 3,1 22 12 31 17 NW 3,6 60 0,0
23.03.2019 13:00:00 9,7 3,5 14,0 16,5 6,5 3,0 12 7 19 10 WSW 7 60 0,0
23.03.2019 12:00:00 10,0 3,4 12,6 15,0 5,8 3,0 11 6 16 9 W 8 60 0,0
23.03.2019 11:00:00 9,3 3,2 11,7 12,5 5,2 3,0 12 7 25 13 W 8 60 0,0
23.03.2019 10:00:00 8,5 1,8 10,9 9,8 4,8 3,0 19 11 30 16 NW 9 60 0,0
23.03.2019 09:00:00 7,8 0,9 9,4 6,9 4,7 3,0 18 10 31 17 NNW 10 60 0,0
23.03.2019 08:00:00 5,9 -0,2 6,5 3,9 4,8 3,0 23 13 32 17 NNW 10 38 0,0
23.03.2019 07:00:00 5,0 1,2 3,8 2,5 5,0 2,9 26 14 34 18 NNW 6 0 0,0
23.03.2019 06:00:00 5,2 0,5 3,2 2,5 5,3 2,9 25 13 30 16 NNW 13 0 0,0
23.03.2019 05:00:00 6,4 -0,5 4,0 2,9 5,6 2,9 21 11 27 15 W 35 0 0,0
23.03.2019 04:00:00 7,6 -1,3 5,0 3,1 5,9 2,9 18 10 27 15 W 34 0 0,0
23.03.2019 03:00:00 8,0 -1,3 5,2 3,6 6,2 2,9 23 12 29 16 WSW 37 0 0,0
23.03.2019 02:00:00 8,5 -1,0 5,9 4,0 6,5 2,9 21 11 30 16 WSW 48 0 0,0
23.03.2019 01:00:00 9,0 -0,5 7,0 4,6 6,9 2,8 24 13 32 17 SW 60 0 0,0
23.03.2019 00:00:00 9,3 -0,4 7,6 5,0 7,2 2,8 29 15 34 18 SSW 59 0 0,0
22.03.2019 23:00:00 9,4 -0,4 7,5 5,5 7,6 2,8 23 13 29 16 SW 70 0 0,0
22.03.2019 22:00:00 10,0 0,2 8,1 6,2 8,0 2,8 18 10 26 14 S 70 0 0,0
22.03.2019 21:00:00 10,3 1,6 8,3 7,0 8,4 2,8 16 9 25 13 SSW 70 0 0,0
22.03.2019 20:00:00 10,8 2,2 8,7 8,1 8,8 2,8 22 12 24 13 S 70 0 0,0
22.03.2019 19:00:00 10,9 2,7 8,7 9,6 9,0 2,8 20 11 23 12 S 69 18 0,0
22.03.2019 18:00:00 12,8 2,9 11,6 11,8 8,9 2,7 16 8 23 12 S 70 60 0,0
22.03.2019 17:00:00 13,8 2,9 14,4 13,8 8,7 2,7 14 8 22 12 SSE 63 60 0,0
22.03.2019 16:00:00 14,2 3,1 16,0 14,8 8,3 2,7 14 8 26 14 SSE 56 60 0,0
22.03.2019 15:00:00 13,8 2,1 15,5 14,8 7,7 2,7 18 10 29 16 SSE 35 60 0,0
22.03.2019 14:00:00 14,0 3,1 16,9 16,8 7,0 2,7 18 10 28 15 S 44 60 0,0
22.03.2019 13:00:00 12,8 2,6 15,7 16,3 6,2 2,7 18 10 27 14 SE 30 60 0,0
22.03.2019 12:00:00 12,4 2,8 14,5 14,4 5,4 2,7 16 8 27 14 SE 29 60 0,0
22.03.2019 11:00:00 11,5 2,6 13,9 12,3 4,8 2,6 15 8 22 12 SE 29 60 0,0
22.03.2019 10:00:00 11,1 2,3 12,2 10,0 4,4 2,6 13 7 17 9 SSE 36 60 0,0
22.03.2019 09:00:00 9,8 1,7 10,3 6,8 4,2 2,6 9 5 19 10 S 34 60 0,0
22.03.2019 08:00:00 8,1 1,7 7,3 4,0 4,3 2,6 14 8 23 13 SSE 34 16 0,0
22.03.2019 07:00:00 7,0 2,0 5,3 3,1 4,5 2,6 21 11 25 13 SSE 26 0 0,0
22.03.2019 06:00:00 7,4 2,1 5,3 3,1 4,7 2,6 17 9 24 13 SE 25 0 0,0
22.03.2019 05:00:00 7,3 2,0 5,2 3,4 4,9 2,6 21 12 26 14 SE 31 0 0,0
22.03.2019 04:00:00 7,5 2,0 5,5 3,6 5,1 2,6 21 11 29 16 SE 29 0 0,0
22.03.2019 03:00:00 7,3 2,9 5,7 3,8 5,3 2,6 21 12 27 14 SE 23 0 0,0
22.03.2019 02:00:00 7,1 3,9 5,3 4,1 5,6 2,5 18 10 23 12 ESE 11 0 0,0
22.03.2019 01:00:00 7,0 3,7 5,0 4,4 5,9 2,5 18 10 24 13 ESE 12 0 0,0
22.03.2019 00:00:00 7,2 4,0 5,6 4,8 6,2 2,5 18 10 24 13 E 9 0 0,0
21.03.2019 23:00:00 7,3 4,3 5,5 5,1 6,6 2,5 16 9 23 12 E 10 0 0,0
21.03.2019 22:00:00 7,5 4,3 5,9 5,6 7,0 2,5 17 9 22 12 E 10 0 0,0
21.03.2019 21:00:00 7,2 4,2 4,5 6,2 7,3 2,5 15 8 19 10 ENE 12 0 0,0
21.03.2019 20:00:00 7,8 4,6 5,1 7,4 7,7 2,5 14 7 16 9 NNE 14 0 0,0
21.03.2019 19:00:00 8,7 4,8 6,0 9,2 7,8 2,5 10 5 17 9 NNE 20 15 0,0
21.03.2019 18:00:00 10,6 4,9 10,1 11,4 7,7 2,5 8 5 16 9 N 35 60 0,0
21.03.2019 17:00:00 12,3 3,3 13,3 13,5 7,3 2,5 6 3 16 8 E 67 60 0,0
21.03.2019 16:00:00 12,7 3,1 15,1 14,6 6,7 2,5 9 5 15 8 NE 47 60 0,0
21.03.2019 15:00:00 12,9 3,0 16,1 14,8 6,0 2,5 6 3 16 9 ENE 70 57 0,0
21.03.2019 14:00:00 12,8 2,4 15,3 16,7 5,0 2,5 7 4 16 9 S 35 60 0,0
21.03.2019 13:00:00 11,9 2,6 14,5 15,7 4,1 2,5 8 5 18 10 SSW 30 60 0,0
21.03.2019 12:00:00 10,0 1,5 12,7 13,4 3,2 2,5 5 3 18 10 SSW 35 60 0,0
21.03.2019 11:00:00 9,4 1,8 11,9 10,7 2,4 2,4 6 3 14 7 SSW 39 60 0,0
21.03.2019 10:00:00 8,0 0,5 9,5 8,0 1,9 2,4 9 5 14 8 SW 46 60 0,0
21.03.2019 09:00:00 6,5 1,0 7,5 3,9 1,8 2,4 9 5 12 7 SSW 47 60 0,0
21.03.2019 08:00:00 4,9 0,4 4,7 0,4 1,9 2,4 10 5 11 6 SW 70 38 0,0
21.03.2019 07:00:00 4,0 0,9 1,4 0,4 2,0 2,4 8 4 10 6 SSE 49 0 0,0
21.03.2019 06:00:00 4,0 0,3 0,5 0,4 2,1 2,4 7 4 8 5 SSE 70 0 0,0
21.03.2019 05:00:00 3,8 1,5 -0,3 0,5 2,3 2,4 5 3 8 4 SE 31 0 0,0
21.03.2019 04:00:00 3,9 1,5 -0,3 0,5 2,5 2,4 6 3 7 4 SSE 42 0 0,0
21.03.2019 03:00:00 4,3 0,5 -0,3 0,4 2,8 2,4 8 4 11 6 NNW 70 0 0,0
21.03.2019 02:00:00 4,5 0,1 0,8 0,8 3,0 2,4 12 6 13 7 NNW 62 0 0,0
21.03.2019 01:00:00 4,5 -0,2 0,8 1,2 3,3 2,4 10 6 14 7 NNW 70 0 0,0
21.03.2019 00:00:00 4,2 0,1 1,9 1,7 3,6 2,4 13 7 16 9 W 57 0 0,0
20.03.2019 23:00:00 4,3 -0,1 1,4 2,2 3,8 2,4 14 8 16 9 WNW 55 0 0,0
20.03.2019 22:00:00 4,3 0,8 2,3 3,1 4,1 2,4 15 8 17 9 NNW 37 0 0,0
20.03.2019 21:00:00 4,7 0,7 3,3 4,2 4,2 2,4 15 8 18 10 WNW 42 0 0,0
20.03.2019 20:00:00 4,9 0,9 4,5 4,9 4,4 2,4 12 7 14 8 NW 42 0 0,0
20.03.2019 19:00:00 5,2 0,9 4,7 5,5 4,4 2,4 11 6 17 9 NW 58 0 0,0
20.03.2019 18:00:00 6,0 0,5 5,0 6,6 4,4 2,4 10 6 16 9 W 69 35 0,0
20.03.2019 17:00:00 6,6 0,0 6,8 8,0 4,2 2,4 9 5 18 10 NW 50 4 0,0
20.03.2019 16:00:00 6,7 -0,7 7,6 8,9 3,7 2,4 8 4 21 11 WNW 47 8 0,0
20.03.2019 15:00:00 7,0 -0,4 7,9 10,4 3,0 2,4 14 8 25 14 W 34 51 0,0
20.03.2019 14:00:00 6,9 -0,5 9,3 10,6 2,2 2,4 14 8 26 14 W 26 58 0,0
20.03.2019 13:00:00 6,4 -0,3 8,7 9,3 1,5 2,4 13 7 24 13 W 18 60 0,0
20.03.2019 12:00:00 5,6 -1,1 7,3 7,0 1,0 2,4 16 9 30 16 WSW 17 60 0,0
20.03.2019 11:00:00 4,6 -1,2 6,3 2,8 0,9 2,4 14 8 29 16 WSW 19 60 0,0
20.03.2019 10:00:00 3,5 -2,1 4,3 0,0 0,9 2,4 16 9 27 15 WSW 23 60 0,0
20.03.2019 09:00:00 2,4 -2,0 3,1 0,0 0,9 2,4 17 9 27 15 WSW 16 60 0,0
20.03.2019 08:00:00 1,2 -2,1 1,3 -0,1 1,0 2,4 20 11 29 16 WSW 19 36 0,0

tt = temperature
td = dewpoint
tt 5cm = temperature 5cm
tt -5cm = temperature -5cm
tt -20cm = temperature -20cm
tt -100cm = temperature -100cm
ff = wind speed
fx = gusts
dd = wind direction
vv = visibility
sd = sunshine duration
rr = precipitation

Next stations